Time;durP1;ratioP1;P1;durP2;ratioP2;P2;SDS_P1;SDS_P2;PMS_P1;PMS_P2;Temp;Humidity;BMP_temperature;BMP_pressure;BME280_temperature;BME280_humidity;BME280_pressure;Samples;Min_cycle;Max_cycle;Signal;HPM_P1;HPM_P2
2023/10/11 00:00:39;;;;;;;3.00;2.22;;;15.50;1.00;;;;;;5083535;28;20494;-76
2023/10/11 00:03:32;;;;;;;2.97;2.20;;;15.50;1.00;;;;;;5094302;28;20120;-76
2023/10/11 00:05:55;;;;;;;3.40;2.80;;;15.50;1.00;;;;;;5085095;28;20054;-76
2023/10/11 00:08:33;;;;;;;3.40;2.95;;;15.50;8.70;;;;;;5088410;28;20425;-76
2023/10/11 00:10:59;;;;;;;2.80;2.17;;;15.50;67.00;;;;;;5103736;28;20317;-77
2023/10/11 00:13:36;;;;;;;3.08;2.38;;;15.40;16.80;;;;;;5104255;28;20065;-77
2023/10/11 00:16:08;;;;;;;2.88;2.38;;;15.40;20.80;;;;;;5104052;28;20388;-76
2023/10/11 00:18:36;;;;;;;2.85;2.05;;;15.40;22.80;;;;;;5087584;28;20039;-76
2023/10/11 00:21:10;;;;;;;2.38;1.77;;;15.40;48.40;;;;;;5105690;28;20047;-76
2023/10/11 00:23:41;;;;;;;2.72;2.00;;;15.40;93.60;;;;;;5085722;28;20481;-76
2023/10/11 00:26:08;;;;;;;3.35;2.40;;;15.40;99.90;;;;;;5093460;28;20100;-76
2023/10/11 00:28:37;;;;;;;3.40;2.42;;;15.40;99.90;;;;;;5100567;28;20131;-77
2023/10/11 00:31:06;;;;;;;2.75;2.25;;;15.40;99.90;;;;;;5086508;28;20048;-76
2023/10/11 00:33:33;;;;;;;2.65;2.33;;;15.40;99.90;;;;;;5098276;28;20143;-76
2023/10/11 00:36:06;;;;;;;2.80;2.15;;;15.40;99.90;;;;;;5082240;28;20058;-76
2023/10/11 00:38:42;;;;;;;3.15;2.45;;;15.30;99.90;;;;;;5082177;28;20218;-76
2023/10/11 00:41:15;;;;;;;2.97;2.10;;;15.40;99.90;;;;;;5082964;28;20044;-76
2023/10/11 00:43:46;;;;;;;2.42;2.05;;;15.40;99.90;;;;;;5082543;28;20055;-77
2023/10/11 00:46:14;;;;;;;3.40;2.55;;;15.40;99.90;;;;;;5087394;28;20086;-77
2023/10/11 00:51:29;;;;;;;3.03;2.55;;;15.40;99.90;;;;;;5076147;28;20044;-76
2023/10/11 00:53:57;;;;;;;2.83;2.17;;;15.40;99.90;;;;;;5100902;28;20048;-76
2023/10/11 00:56:31;;;;;;;3.58;2.60;;;15.40;99.90;;;;;;5086296;28;20427;-76
2023/10/11 00:59:10;;;;;;;2.88;2.53;;;15.40;99.90;;;;;;5075923;28;20462;-77
2023/10/11 01:01:37;;;;;;;2.75;2.25;;;15.40;99.90;;;;;;5105881;28;20051;-76
2023/10/11 01:04:06;;;;;;;2.88;2.28;;;15.40;99.90;;;;;;5096496;28;20207;-76
2023/10/11 01:06:34;;;;;;;3.38;2.90;;;15.40;1.00;;;;;;5105071;28;20047;-76
2023/10/11 01:09:17;;;;;;;3.47;2.45;;;15.40;1.00;;;;;;5104814;28;20075;-76
2023/10/11 01:11:46;;;;;;;3.28;2.47;;;15.40;1.00;;;;;;5106476;28;20630;-77
2023/10/11 01:14:13;;;;;;;3.20;2.47;;;15.40;1.00;;;;;;5102727;28;20397;-76
2023/10/11 01:16:41;;;;;;;3.28;2.55;;;15.40;1.00;;;;;;5106278;28;20051;-76
2023/10/11 01:19:15;;;;;;;3.17;2.58;;;15.40;1.00;;;;;;5107734;28;20073;-76
2023/10/11 01:21:47;;;;;;;2.35;2.05;;;15.40;1.00;;;;;;5091244;28;20423;-76
2023/10/11 01:24:17;;;;;;;2.78;2.08;;;15.40;1.00;;;;;;5073266;28;20370;-77
2023/10/11 01:26:44;;;;;;;2.33;2.08;;;15.50;1.00;;;;;;5089641;28;20523;-77
2023/10/11 01:29:11;;;;;;;3.50;3.10;;;15.50;1.00;;;;;;5089817;28;20047;-77
2023/10/11 01:31:38;;;;;;;2.95;2.30;;;15.50;1.00;;;;;;5095401;28;20056;-76
2023/10/11 01:34:05;;;;;;;3.53;2.55;;;15.50;1.00;;;;;;5093068;27;20592;-76
2023/10/11 01:36:34;;;;;;;2.90;2.33;;;15.60;1.00;;;;;;5084536;28;20055;-76
2023/10/11 01:39:06;;;;;;;2.40;2.20;;;15.60;1.00;;;;;;5073218;28;20048;-77
2023/10/11 01:41:33;;;;;;;2.63;2.35;;;15.70;1.00;;;;;;5071853;28;20088;-76
2023/10/11 01:44:00;;;;;;;2.92;2.00;;;15.70;99.90;;;;;;5106069;28;20071;-76
2023/10/11 01:46:27;;;;;;;3.10;2.22;;;15.70;99.90;;;;;;5103521;28;20071;-76
2023/10/11 01:48:55;;;;;;;3.35;2.10;;;15.80;99.90;;;;;;5106885;28;20369;-76
2023/10/11 01:51:28;;;;;;;2.75;2.10;;;15.80;99.90;;;;;;5089842;28;20051;-76
2023/10/11 01:53:57;;;;;;;;;;;15.80;99.90;;;;;;5105834;28;20051;-76
2023/10/11 01:56:24;;;;;;;2.90;2.33;;;15.90;99.90;;;;;;5088676;28;19919;-76
2023/10/11 01:58:56;;;;;;;2.47;1.83;;;15.90;99.90;;;;;;5107100;28;20500;-77
2023/10/11 02:01:26;;;;;;;2.85;2.05;;;16.00;99.90;;;;;;5107557;28;20504;-76
2023/10/11 02:04:04;;;;;;;2.78;2.00;;;16.00;99.90;;;;;;5106812;28;20050;-76
2023/10/11 02:06:31;;;;;;;3.25;2.08;;;16.00;99.90;;;;;;5106658;28;20096;-76
2023/10/11 02:08:59;;;;;;;2.60;2.00;;;16.10;99.90;;;;;;5103921;28;20441;-77
2023/10/11 02:11:29;;;;;;;2.83;2.10;;;16.10;99.90;;;;;;5105910;28;20123;-76
2023/10/11 02:14:00;;;;;;;2.22;1.85;;;16.10;99.90;;;;;;5107073;28;20062;-76
2023/10/11 02:16:28;;;;;;;3.45;2.50;;;16.10;99.90;;;;;;5107340;28;20436;-77
2023/10/11 02:18:58;;;;;;;2.78;2.30;;;16.10;99.90;;;;;;5073607;28;20048;-76
2023/10/11 02:21:29;;;;;;;3.60;2.80;;;16.20;99.90;;;;;;5089439;28;20047;-76
2023/10/11 02:23:59;;;;;;;2.97;2.22;;;16.20;99.90;;;;;;5088264;28;20400;-76
2023/10/11 02:26:34;;;;;;;3.10;2.50;;;16.20;99.90;;;;;;5089140;28;20247;-76
2023/10/11 02:29:06;;;;;;;3.33;2.67;;;16.20;99.90;;;;;;5090620;28;20047;-76
2023/10/11 02:31:36;;;;;;;4.28;2.92;;;16.20;99.90;;;;;;5091742;28;20529;-76
2023/10/11 02:34:12;;;;;;;2.97;2.60;;;16.30;99.90;;;;;;5101705;28;20108;-76
2023/10/11 02:36:44;;;;;;;2.60;2.20;;;16.30;99.90;;;;;;5100330;28;20131;-77
2023/10/11 02:39:31;;;;;;;3.72;2.67;;;16.30;99.90;;;;;;5085058;28;20113;-76
2023/10/11 02:41:59;;;;;;;3.58;2.70;;;16.30;99.90;;;;;;5087817;28;20051;-77
2023/10/11 02:44:26;;;;;;;3.42;2.45;;;16.30;99.90;;;;;;5105661;28;20515;-76
2023/10/11 02:46:53;;;;;;;3.40;2.70;;;16.30;99.90;;;;;;5106594;28;20052;-77
2023/10/11 02:49:21;;;;;;;3.15;2.13;;;16.30;99.90;;;;;;5089062;28;20214;-76
2023/10/11 02:52:05;;;;;;;4.10;2.38;;;16.30;99.90;;;;;;5105955;28;20119;-77
2023/10/11 02:54:38;;;;;;;4.15;3.08;;;16.30;99.90;;;;;;5089722;28;20058;-76
2023/10/11 02:57:19;;;;;;;3.47;3.13;;;16.30;99.90;;;;;;5106337;28;20397;-76
2023/10/11 02:59:50;;;;;;;5.63;3.60;;;16.30;99.90;;;;;;5107388;28;20385;-77
2023/10/11 03:02:20;;;;;;;4.28;3.40;;;16.30;99.90;;;;;;5090559;28;20084;-77
2023/10/11 03:04:48;;;;;;;3.33;3.03;;;16.30;99.90;;;;;;5105397;28;20047;-76
2023/10/11 03:07:21;;;;;;;3.28;2.70;;;16.30;99.90;;;;;;5088283;28;20043;-76
2023/10/11 03:09:49;;;;;;;3.20;2.70;;;16.30;99.90;;;;;;5105453;28;20054;-76
2023/10/11 03:12:19;;;;;;;3.65;3.30;;;16.30;99.90;;;;;;5104582;28;20139;-77
2023/10/11 03:14:47;;;;;;;4.15;3.20;;;16.20;99.90;;;;;;5106634;28;20051;-76
2023/10/11 03:17:15;;;;;;;3.70;2.85;;;16.20;99.90;;;;;;5106579;28;20485;-77
2023/10/11 03:19:42;;;;;;;3.70;2.90;;;16.20;99.90;;;;;;5104299;28;20071;-76
2023/10/11 03:22:10;;;;;;;2.67;2.47;;;16.10;1.00;;;;;;5106522;28;20059;-76
2023/10/11 03:24:40;;;;;;;3.92;3.03;;;16.10;1.00;;;;;;5087806;28;20128;-76
2023/10/11 03:27:13;;;;;;;2.95;2.55;;;16.10;1.00;;;;;;5104479;28;20066;-76
2023/10/11 03:29:40;;;;;;;4.32;2.92;;;16.10;1.00;;;;;;5088669;28;20053;-77
2023/10/11 03:32:07;;;;;;;3.92;2.88;;;16.10;25.60;;;;;;5087719;28;20335;-76
2023/10/11 03:34:34;;;;;;;3.67;2.67;;;16.10;56.50;;;;;;5104398;28;20043;-77
2023/10/11 03:37:00;;;;;;;4.40;3.10;;;16.10;85.60;;;;;;5105838;28;20059;-76
2023/10/11 03:44:46;;;;;;;3.55;2.75;;;16.20;55.30;;;;;;5104704;28;20059;-76
2023/10/11 03:47:14;;;;;;;3.67;2.67;;;16.20;54.70;;;;;;5105037;28;20051;-76
2023/10/11 03:52:30;;;;;;;2.92;2.58;;;16.30;51.10;;;;;;5103961;28;20059;-76
2023/10/11 03:55:09;;;;;;;3.05;2.45;;;16.40;30.30;;;;;;5104146;28;20048;-77
2023/10/11 03:57:41;;;;;;;2.45;2.10;;;16.40;6.20;;;;;;5105134;28;20051;-76
2023/10/11 04:02:54;;;;;;;3.13;2.42;;;16.50;1.00;;;;;;5093756;28;20100;-76
2023/10/11 04:05:28;;;;;;;3.50;2.63;;;16.60;1.00;;;;;;5091008;28;20060;-76
2023/10/11 04:07:56;;;;;;;3.20;2.67;;;16.60;1.00;;;;;;5067631;28;20143;-77
2023/10/11 04:10:38;;;;;;;2.95;2.63;;;16.60;1.00;;;;;;5082607;28;20052;-76
2023/10/11 04:13:09;;;;;;;3.03;2.65;;;16.70;1.00;;;;;;5092635;28;20040;-76
2023/10/11 04:15:39;;;;;;;2.67;2.38;;;16.70;1.00;;;;;;5068512;28;20048;-76
2023/10/11 04:18:43;;;;;;;4.28;2.70;;;16.70;1.00;;;;;;5084821;28;20143;-76
2023/10/11 04:23:57;;;;;;;3.20;2.42;;;16.80;1.00;;;;;;5067595;28;20044;-75
2023/10/11 04:26:33;;;;;;;3.88;2.70;;;16.80;1.00;;;;;;5084673;28;20044;-76
2023/10/11 04:29:06;;;;;;;3.50;2.67;;;16.80;1.00;;;;;;5085007;28;20074;-78
2023/10/11 04:34:23;;;;;;;2.22;1.92;;;16.90;1.00;;;;;;5101991;28;20666;-75
2023/10/11 04:36:55;;;;;;;2.78;2.15;;;16.90;1.00;;;;;;5085007;28;20052;-76
2023/10/11 04:39:33;;;;;;;2.70;1.95;;;16.90;99.90;;;;;;5086903;28;20048;-76
2023/10/11 04:42:02;;;;;;;2.60;2.10;;;17.00;99.90;;;;;;5091692;28;20046;-76
2023/10/11 04:44:42;;;;;;;2.20;1.80;;;17.00;99.90;;;;;;5092495;28;20488;-76
2023/10/11 04:47:10;;;;;;;3.05;1.95;;;17.10;99.90;;;;;;5087410;28;20048;-76
2023/10/11 04:49:37;;;;;;;3.40;2.20;;;17.10;99.90;;;;;;5086074;28;20159;-76
2023/10/11 04:52:13;;;;;;;2.45;1.92;;;17.10;99.90;;;;;;5090813;28;20047;-76
2023/10/11 04:54:53;;;;;;;2.97;2.05;;;17.00;99.90;;;;;;5093605;28;20553;-76
2023/10/11 04:57:40;;;;;;;2.70;2.40;;;17.10;99.90;;;;;;5086252;28;20087;-76
2023/10/11 05:00:09;;;;;;;2.50;1.95;;;17.00;99.90;;;;;;5102578;28;20509;-76
2023/10/11 05:02:38;;;;;;;2.38;1.75;;;17.10;99.90;;;;;;5098622;28;20048;-76
2023/10/11 05:05:10;;;;;;;2.72;1.85;;;17.10;99.90;;;;;;5101809;28;20047;-76
2023/10/11 05:07:42;;;;;;;3.33;2.25;;;17.10;99.90;;;;;;5085029;28;20532;-76
2023/10/11 05:10:29;;;;;;;2.35;1.85;;;17.10;99.90;;;;;;5079667;28;20055;-76
2023/10/11 05:13:05;;;;;;;2.53;1.98;;;17.20;99.90;;;;;;5083964;28;20056;-76
2023/10/11 05:15:42;;;;;;;4.38;2.13;;;17.10;99.90;;;;;;5101507;28;20039;-76
2023/10/11 05:18:10;;;;;;;2.35;2.00;;;17.20;99.90;;;;;;5104646;28;20139;-76
2023/10/11 05:23:11;;;;;;;3.20;2.00;;;17.20;99.90;;;;;;5103527;28;20490;-76
2023/10/11 05:25:45;;;;;;;2.70;1.88;;;17.20;99.90;;;;;;5068657;28;20044;-76
2023/10/11 05:28:27;;;;;;;3.47;2.08;;;17.30;99.90;;;;;;5098030;28;20048;-76
2023/10/11 05:31:44;;;;;;;2.65;1.90;;;17.20;99.90;;;;;;5101675;28;20040;-76
2023/10/11 05:34:12;;;;;;;1.90;1.63;;;17.30;99.90;;;;;;5083443;28;20131;-76
2023/10/11 05:36:48;;;;;;;2.95;1.85;;;17.30;99.90;;;;;;5102975;28;20051;-77
2023/10/11 05:50:50;;;;;;;2.72;1.95;;;17.30;99.90;;;;;;5101559;28;20130;-78
2023/10/11 05:53:14;;;;;;;1.90;1.58;;;17.30;99.90;;;;;;5087198;28;20075;-78
2023/10/11 05:55:41;;;;;;;1.83;1.35;;;17.30;99.90;;;;;;5103034;28;20047;-78
2023/10/11 05:58:08;;;;;;;1.42;1.33;;;17.30;99.90;;;;;;5071831;28;20047;-76
2023/10/11 06:00:38;;;;;;;1.67;1.38;;;17.40;99.90;;;;;;5099971;28;20520;-76
2023/10/11 06:03:06;;;;;;;2.85;1.80;;;17.40;99.90;;;;;;5096228;28;20136;-76
2023/10/11 06:05:39;;;;;;;3.47;1.55;;;17.40;99.90;;;;;;5107698;28;20273;-79
2023/10/11 06:08:15;;;;;;;1.88;1.42;;;17.40;99.90;;;;;;5098972;28;20441;-80
2023/10/11 06:10:42;;;;;;;2.47;1.70;;;17.40;99.90;;;;;;5073871;28;20055;-80
2023/10/11 06:13:15;;;;;;;3.17;1.98;;;17.40;99.90;;;;;;5094763;28;20051;-80
2023/10/11 06:15:43;;;;;;;2.22;1.67;;;17.40;99.90;;;;;;5104868;28;20088;-80
2023/10/11 06:18:35;;;;;;;1.95;1.40;;;17.40;99.90;;;;;;5104045;28;20135;-80
2023/10/11 06:21:08;;;;;;;1.77;1.42;;;17.50;99.90;;;;;;5090276;28;20471;-80
2023/10/11 06:23:38;;;;;;;2.85;1.77;;;17.50;99.90;;;;;;5097515;28;20543;-80
2023/10/11 06:26:28;;;;;;;2.20;1.50;;;17.50;99.90;;;;;;5099500;28;20157;-82
2023/10/11 06:29:02;;;;;;;2.13;1.73;;;17.50;99.90;;;;;;5090285;28;20047;-80
2023/10/11 06:31:34;;;;;;;2.88;1.80;;;17.50;99.90;;;;;;5091207;28;20048;-79
2023/10/11 06:34:03;;;;;;;1.88;1.38;;;17.50;99.90;;;;;;5082681;28;20044;-79
2023/10/11 06:36:32;;;;;;;3.35;1.60;;;17.50;99.90;;;;;;5084939;28;20055;-80
2023/10/11 06:38:59;;;;;;;2.55;1.65;;;17.60;99.90;;;;;;5099233;28;20055;-80
2023/10/11 06:41:36;;;;;;;2.45;2.00;;;17.60;99.90;;;;;;5100759;28;20514;-80
2023/10/11 06:44:04;;;;;;;3.55;1.63;;;17.60;99.90;;;;;;5097625;28;20094;-80
2023/10/11 06:46:31;;;;;;;3.45;2.15;;;17.60;99.90;;;;;;5096579;28;20035;-80
2023/10/11 06:48:58;;;;;;;2.90;1.85;;;17.60;99.90;;;;;;5097169;28;20044;-80
2023/10/11 06:51:25;;;;;;;1.73;1.35;;;17.70;99.90;;;;;;5105492;28;20980;-80
2023/10/11 06:53:56;;;;;;;2.38;1.52;;;17.70;99.90;;;;;;5102501;28;20058;-80
2023/10/11 06:56:25;;;;;;;1.30;1.20;;;17.70;99.90;;;;;;5092578;28;20050;-80
2023/10/11 06:58:52;;;;;;;1.90;1.65;;;17.80;99.90;;;;;;5087678;28;20486;-80
2023/10/11 07:01:19;;;;;;;2.63;1.80;;;17.80;99.90;;;;;;5105923;28;20418;-80
2023/10/11 07:03:46;;;;;;;2.17;1.60;;;17.80;99.90;;;;;;5100076;28;20056;-80
2023/10/11 07:06:16;;;;;;;2.50;1.85;;;17.90;99.90;;;;;;5090820;28;20459;-80
2023/10/11 07:08:49;;;;;;;2.47;1.80;;;17.90;99.90;;;;;;5100988;28;20119;-80
2023/10/11 07:11:43;;;;;;;3.00;2.03;;;18.00;30.70;;;;;;5102705;28;20048;-80
2023/10/11 07:14:25;;;;;;;1.85;1.65;;;18.00;19.90;;;;;;5077125;28;20487;-80
2023/10/11 07:16:53;;;;;;;2.35;1.77;;;18.00;98.30;;;;;;5089377;28;20201;-81
2023/10/11 07:19:20;;;;;;;3.00;1.67;;;18.10;1.00;;;;;;5098380;28;20051;-80
2023/10/11 07:21:52;;;;;;;2.05;1.52;;;18.20;1.00;;;;;;5105524;28;20381;-81
2023/10/11 07:27:07;;;;;;;1.85;1.40;;;18.30;99.90;;;;;;5101403;28;20344;-81
2023/10/11 07:29:36;;;;;;;2.33;1.60;;;18.30;99.90;;;;;;5069935;28;20063;-81
2023/10/11 07:32:04;;;;;;;2.03;1.50;;;18.30;99.90;;;;;;5066090;28;20056;-83
2023/10/11 07:34:31;;;;;;;1.85;1.60;;;18.40;99.90;;;;;;5095031;28;20052;-82
2023/10/11 07:37:03;;;;;;;1.92;1.40;;;18.40;95.20;;;;;;5082958;28;20043;-81
2023/10/11 07:39:33;;;;;;;2.13;1.60;;;18.50;87.50;;;;;;5094842;28;20505;-82
2023/10/11 07:42:08;;;;;;;2.10;1.58;;;18.50;1.00;;;;;;5103697;28;20435;-81
2023/10/11 07:44:38;;;;;;;2.30;1.70;;;18.60;1.00;;;;;;5104065;28;20056;-81
2023/10/11 07:47:15;;;;;;;2.00;1.55;;;18.60;1.00;;;;;;5099373;28;20052;-81
2023/10/11 07:49:43;;;;;;;2.45;1.77;;;18.60;1.00;;;;;;5091810;28;20534;-82
2023/10/11 07:52:12;;;;;;;2.92;1.83;;;18.70;1.00;;;;;;5071065;28;20055;-81
2023/10/11 07:54:40;;;;;;;1.90;1.52;;;18.70;99.90;;;;;;5069450;28;20047;-81
2023/10/11 07:57:13;;;;;;;3.33;1.50;;;18.70;99.90;;;;;;5077929;28;20079;-82
2023/10/11 07:59:44;;;;;;;1.73;1.60;;;18.80;99.90;;;;;;5086874;28;20109;-81
2023/10/11 08:02:26;;;;;;;2.20;2.00;;;18.80;99.90;;;;;;5096658;28;20112;-83
2023/10/11 08:04:54;;;;;;;3.10;2.00;;;18.80;99.90;;;;;;5089933;28;20051;-86
2023/10/11 08:07:22;;;;;;;2.47;1.85;;;18.80;99.90;;;;;;5091466;28;20309;-82
2023/10/11 08:09:52;;;;;;;2.63;1.83;;;18.70;99.90;;;;;;5095124;28;20213;-83
2023/10/11 08:12:27;;;;;;;1.98;1.70;;;18.70;99.90;;;;;;5085583;28;20044;-82
2023/10/11 08:14:56;;;;;;;2.83;2.17;;;18.70;99.90;;;;;;5087058;28;20067;-87
2023/10/11 08:17:27;;;;;;;2.55;1.92;;;18.60;99.90;;;;;;5089262;28;20051;-86
2023/10/11 08:19:55;;;;;;;1.88;1.60;;;18.60;99.90;;;;;;5095835;28;20297;-82
2023/10/11 08:22:25;;;;;;;2.30;1.80;;;18.70;99.90;;;;;;5101053;28;20087;-84
2023/10/11 08:24:56;;;;;;;2.03;1.50;;;18.60;99.90;;;;;;5094110;28;20569;-80
2023/10/11 08:30:05;;;;;;;2.03;1.73;;;18.70;99.90;;;;;;5102957;28;20047;-80
2023/10/11 08:32:33;;;;;;;4.10;2.22;;;18.70;99.90;;;;;;5091365;28;20480;-80
2023/10/11 08:35:00;;;;;;;2.22;2.03;;;18.80;99.90;;;;;;5104299;28;20058;-80
2023/10/11 08:37:31;;;;;;;2.17;1.77;;;18.80;99.90;;;;;;5104042;28;20052;-80
2023/10/11 08:39:58;;;;;;;3.05;2.10;;;18.90;99.90;;;;;;5097912;28;20089;-80
2023/10/11 08:42:30;;;;;;;3.17;1.88;;;19.00;99.90;;;;;;5101010;28;20389;-79
2023/10/11 08:45:00;;;;;;;1.95;1.75;;;19.10;1.00;;;;;;5099921;28;20063;-81
2023/10/11 08:47:29;;;;;;;1.88;1.45;;;19.10;1.00;;;;;;5094749;28;20484;-77
2023/10/11 08:49:56;;;;;;;1.77;1.40;;;19.20;99.90;;;;;;5091133;28;20047;-77
2023/10/11 08:52:28;;;;;;;1.73;1.63;;;19.30;99.90;;;;;;5086575;28;20128;-78
2023/10/11 08:54:54;;;;;;;2.40;1.75;;;19.30;99.90;;;;;;5072293;28;20051;-78
2023/10/11 08:57:23;;;;;;;2.05;1.63;;;19.30;1.00;;;;;;5089580;28;20093;-78
2023/10/11 08:59:50;;;;;;;2.20;1.50;;;19.40;1.00;;;;;;5108814;28;20051;-78
2023/10/11 09:02:18;;;;;;;3.00;1.20;;;19.50;99.90;;;;;;5089487;28;20048;-78
2023/10/11 09:05:28;;;;;;;2.97;2.00;;;19.50;99.90;;;;;;5091198;28;20139;-78
2023/10/11 09:07:55;;;;;;;2.60;1.90;;;19.50;99.90;;;;;;5097347;28;20414;-80
2023/10/11 09:10:27;;;;;;;1.98;1.73;;;19.50;99.90;;;;;;5094633;28;20113;-80
2023/10/11 09:12:57;;;;;;;2.70;1.88;;;19.50;14.90;;;;;;5101741;28;20047;-79
2023/10/11 09:15:42;;;;;;;1.40;1.30;;;19.50;1.00;;;;;;5095039;28;20047;-80
2023/10/11 09:18:16;;;;;;;1.88;1.55;;;19.60;1.00;;;;;;5095206;28;20059;-79
2023/10/11 09:23:38;;;;;;;1.98;1.70;;;19.70;1.00;;;;;;5080257;28;20056;-79
2023/10/11 09:26:08;;;;;;;1.63;1.48;;;19.80;99.90;;;;;;5090213;28;20044;-79
2023/10/11 09:28:40;;;;;;;2.75;2.08;;;19.80;99.90;;;;;;5063920;28;20048;-80
2023/10/11 09:31:12;;;;;;;2.13;1.73;;;19.80;99.90;;;;;;5091631;28;20124;-79
2023/10/11 09:33:59;;;;;;;2.17;1.58;;;19.80;99.90;;;;;;5105833;28;20051;-80
2023/10/11 09:36:28;;;;;;;2.00;1.38;;;19.90;99.90;;;;;;5089598;28;20048;-79
2023/10/11 09:38:55;;;;;;;1.67;1.40;;;19.90;99.90;;;;;;5103661;28;20055;-79
2023/10/11 09:41:27;;;;;;;2.03;1.73;;;20.00;99.90;;;;;;5086609;28;20067;-78
2023/10/11 09:43:57;;;;;;;2.17;1.50;;;20.10;99.90;;;;;;5107891;28;20126;-79
2023/10/11 09:46:30;;;;;;;1.77;1.50;;;20.20;99.90;;;;;;5108118;28;20477;-79
2023/10/11 09:49:02;;;;;;;2.03;1.50;;;20.30;99.90;;;;;;5108819;28;20079;-79
2023/10/11 09:51:29;;;;;;;2.50;1.83;;;20.30;99.90;;;;;;5084339;28;20048;-79
2023/10/11 09:54:07;;;;;;;1.75;1.27;;;20.40;99.90;;;;;;5098032;28;20059;-79
2023/10/11 09:56:48;;;;;;;1.90;1.50;;;20.50;99.90;;;;;;5105297;28;20070;-79
2023/10/11 09:59:46;;;;;;;2.00;1.75;;;20.50;99.90;;;;;;5106022;28;20098;-79
2023/10/11 10:02:23;;;;;;;1.67;1.30;;;20.50;99.90;;;;;;5106811;28;20066;-79
2023/10/11 10:04:52;;;;;;;1.30;1.20;;;20.60;99.90;;;;;;5106491;28;20128;-79
2023/10/11 10:07:25;;;;;;;2.35;1.55;;;20.60;99.90;;;;;;5107870;28;20048;-79
2023/10/11 10:10:02;;;;;;;1.33;1.15;;;20.80;99.90;;;;;;5105953;28;20104;-80
2023/10/11 10:12:43;;;;;;;1.13;1.02;;;21.00;91.70;;;;;;5107553;28;20048;-79
2023/10/11 10:15:13;;;;;;;1.85;1.02;;;21.00;48.70;;;;;;5106326;28;20092;-79
2023/10/11 10:18:03;;;;;;;1.75;1.00;;;21.10;41.40;;;;;;5106170;28;20079;-79
2023/10/11 10:20:34;;;;;;;1.35;1.10;;;21.20;33.10;;;;;;5107593;28;20516;-79
2023/10/11 10:23:16;;;;;;;1.52;1.30;;;21.30;17.40;;;;;;5106457;28;20047;-79
2023/10/11 10:26:11;;;;;;;1.83;1.40;;;21.30;3.10;;;;;;5103935;28;20116;-79
2023/10/11 10:28:45;;;;;;;1.88;0.90;;;21.30;1.00;;;;;;5104622;28;20051;-79
2023/10/11 10:31:16;;;;;;;1.65;1.23;;;21.30;1.00;;;;;;5105292;28;20404;-79
2023/10/11 10:33:52;;;;;;;1.35;1.10;;;21.40;1.00;;;;;;5089506;28;20048;-79
2023/10/11 10:36:20;;;;;;;1.70;1.10;;;21.60;1.00;;;;;;5089447;28;20075;-79
2023/10/11 10:41:40;;;;;;;2.35;1.30;;;21.50;1.00;;;;;;5105969;28;20139;-79
2023/10/11 10:44:17;;;;;;;1.33;1.13;;;21.40;1.00;;;;;;5088908;28;20039;-79
2023/10/11 10:46:51;;;;;;;2.05;1.40;;;21.40;1.00;;;;;;5088715;28;20054;-79
2023/10/11 10:49:19;;;;;;;1.58;1.20;;;21.40;1.00;;;;;;5102060;28;20138;-80
2023/10/11 10:51:49;;;;;;;1.38;1.20;;;21.50;1.00;;;;;;5102501;28;20059;-79
2023/10/11 10:54:23;;;;;;;1.17;1.00;;;21.60;1.00;;;;;;5101075;28;20051;-79
2023/10/11 10:56:53;;;;;;;1.75;1.02;;;21.60;1.00;;;;;;5105207;28;20100;-79
2023/10/11 10:59:21;;;;;;;1.88;1.40;;;21.60;1.00;;;;;;5089156;28;20298;-79
2023/10/11 11:01:50;;;;;;;1.90;1.30;;;21.70;1.00;;;;;;5072497;28;20460;-80
2023/10/11 11:04:22;;;;;;;1.13;1.00;;;21.70;1.00;;;;;;5088674;28;20055;-79
2023/10/11 11:06:50;;;;;;;;;;;21.80;1.00;;;;;;5105790;28;20048;-80
2023/10/11 11:09:27;;;;;;;1.13;1.00;;;21.90;1.00;;;;;;5106053;28;20361;-79
2023/10/11 11:12:08;;;;;;;1.50;1.13;;;22.00;1.00;;;;;;5105221;28;20043;-79
2023/10/11 11:14:35;;;;;;;1.55;0.90;;;22.20;1.00;;;;;;5100602;28;20051;-79
2023/10/11 11:17:09;;;;;;;1.30;0.82;;;22.30;1.00;;;;;;5105280;28;20059;-80
2023/10/11 11:19:37;;;;;;;1.40;1.00;;;22.40;1.00;;;;;;5106534;28;20129;-79
2023/10/11 11:22:15;;;;;;;2.15;1.10;;;22.40;1.00;;;;;;5106065;28;20120;-80
2023/10/11 11:24:42;;;;;;;1.13;1.00;;;22.30;1.00;;;;;;5101021;28;20051;-79
2023/10/11 11:27:32;;;;;;;2.22;1.63;;;22.20;1.00;;;;;;5084933;28;20082;-79
2023/10/11 11:30:04;;;;;;;1.48;1.10;;;22.20;1.00;;;;;;5088730;28;20054;-79
2023/10/11 11:32:38;;;;;;;1.23;1.08;;;22.10;1.00;;;;;;5088958;28;20126;-79
2023/10/11 11:35:09;;;;;;;1.60;1.38;;;22.20;1.00;;;;;;5088596;28;20075;-79
2023/10/11 11:37:40;;;;;;;1.27;0.90;;;22.40;1.00;;;;;;5072685;28;20055;-79
2023/10/11 11:40:24;;;;;;;2.22;1.45;;;22.50;1.00;;;;;;5102523;28;20047;-79
2023/10/11 11:42:50;;;;;;;1.98;1.23;;;22.60;1.00;;;;;;5102074;28;20048;-79
2023/10/11 11:45:25;;;;;;;1.95;1.38;;;22.80;1.00;;;;;;5103829;28;20044;-80
2023/10/11 11:48:01;;;;;;;1.33;1.17;;;22.90;1.00;;;;;;5106214;28;20049;-79
2023/10/11 11:50:33;;;;;;;2.78;1.70;;;22.90;1.00;;;;;;5105978;28;20948;-80
2023/10/11 11:53:00;;;;;;;2.10;1.60;;;23.00;1.00;;;;;;5104968;28;20101;-79
2023/10/11 11:55:27;;;;;;;3.08;1.63;;;22.90;1.00;;;;;;5085446;28;20174;-79
2023/10/11 11:57:54;;;;;;;1.52;1.35;;;23.00;1.00;;;;;;5100786;28;20043;-79
2023/10/11 12:02:48;;;;;;;3.05;1.92;;;23.50;1.00;;;;;;5084361;28;20678;-79
2023/10/11 12:05:15;;;;;;;2.80;2.20;;;23.70;1.00;;;;;;5103278;28;20048;-79
2023/10/11 12:07:43;;;;;;;2.90;2.08;;;23.80;1.00;;;;;;5104926;28;20049;-80
2023/10/11 12:10:25;;;;;;;2.00;1.70;;;23.90;1.00;;;;;;5101720;28;20055;-79
2023/10/11 12:13:05;;;;;;;2.22;1.25;;;24.00;1.00;;;;;;5101533;28;20052;-79
2023/10/11 12:15:35;;;;;;;1.85;1.40;;;24.10;1.00;;;;;;5104969;28;20066;-80
2023/10/11 12:18:05;;;;;;;2.00;1.70;;;24.20;1.00;;;;;;5105783;28;20062;-80
2023/10/11 12:20:36;;;;;;;1.80;1.45;;;24.20;1.00;;;;;;5106136;28;20051;-79
2023/10/11 12:23:09;;;;;;;2.38;1.70;;;24.30;1.00;;;;;;5104862;28;20197;-79
2023/10/11 12:25:39;;;;;;;2.72;1.58;;;24.40;1.00;;;;;;5102636;28;20500;-80
2023/10/11 12:28:06;;;;;;;2.53;1.83;;;24.60;1.00;;;;;;5102523;28;20054;-80
2023/10/11 12:30:36;;;;;;;2.58;1.60;;;24.50;1.00;;;;;;5105798;28;20059;-80
2023/10/11 12:33:09;;;;;;;2.80;1.63;;;24.60;1.00;;;;;;5106057;28;20326;-79
2023/10/11 12:35:39;;;;;;;2.50;1.60;;;24.50;1.00;;;;;;5104894;28;20062;-80
2023/10/11 12:38:12;;;;;;;;;;;24.40;1.00;;;;;;5104800;28;20100;-80
2023/10/11 12:40:40;;;;;;;2.47;1.50;;;24.20;1.00;;;;;;5103759;28;20349;-79
2023/10/11 12:43:09;;;;;;;1.80;1.48;;;24.00;1.00;;;;;;5103792;28;20059;-80
2023/10/11 12:45:37;;;;;;;1.75;1.30;;;24.00;1.00;;;;;;5105976;28;20097;-80
2023/10/11 12:48:06;;;;;;;1.75;1.15;;;24.00;1.00;;;;;;5105915;28;20137;-80
2023/10/11 12:50:37;;;;;;;2.63;1.40;;;23.80;1.00;;;;;;5106314;28;20466;-80
2023/10/11 12:53:10;;;;;;;1.33;1.08;;;23.70;1.00;;;;;;5105681;28;20047;-80
2023/10/11 12:55:49;;;;;;;1.90;1.10;;;23.80;1.00;;;;;;5091913;28;20048;-80
2023/10/11 12:58:16;;;;;;;2.45;1.60;;;24.00;1.00;;;;;;5108761;28;20164;-80
2023/10/11 13:00:58;;;;;;;2.90;1.50;;;24.00;1.00;;;;;;5108385;28;20048;-80
2023/10/11 13:03:25;;;;;;;3.25;1.25;;;24.10;1.00;;;;;;5108436;28;20127;-80
2023/10/11 13:05:53;;;;;;;2.63;1.35;;;24.10;1.00;;;;;;5109462;28;20051;-80
2023/10/11 13:08:26;;;;;;;2.00;1.40;;;24.20;1.00;;;;;;5107362;28;20131;-80
2023/10/11 13:10:53;;;;;;;1.45;1.10;;;24.20;1.00;;;;;;5106836;28;20070;-80
2023/10/11 13:13:21;;;;;;;1.90;1.55;;;24.30;1.00;;;;;;5107252;28;20525;-80
2023/10/11 13:15:59;;;;;;;1.70;1.00;;;24.40;1.00;;;;;;5107856;28;20059;-80
2023/10/11 13:18:26;;;;;;;1.98;1.25;;;24.20;1.00;;;;;;5092962;28;20779;-80
2023/10/11 13:20:56;;;;;;;2.30;1.38;;;24.00;1.00;;;;;;5108857;28;20050;-79
2023/10/11 13:23:28;;;;;;;3.08;1.65;;;23.70;1.00;;;;;;5098365;28;20043;-80
2023/10/11 13:26:00;;;;;;;2.63;1.42;;;23.40;1.00;;;;;;5092500;28;20430;-80
2023/10/11 13:28:28;;;;;;;1.98;1.35;;;23.10;1.00;;;;;;5084367;28;20052;-80
2023/10/11 13:30:55;;;;;;;1.55;1.10;;;22.90;1.00;;;;;;5082869;28;20058;-80
2023/10/11 13:33:22;;;;;;;2.40;1.52;;;22.60;1.00;;;;;;5090671;28;20096;-80
2023/10/11 13:35:50;;;;;;;2.53;1.27;;;22.40;1.00;;;;;;5107524;28;20098;-80
2023/10/11 13:38:20;;;;;;;2.28;1.65;;;22.30;1.00;;;;;;5108386;28;20063;-80
2023/10/11 13:40:47;;;;;;;1.88;1.15;;;22.10;1.00;;;;;;5106236;28;20100;-80
2023/10/11 13:43:13;;;;;;;1.45;1.17;;;22.10;1.00;;;;;;5088984;28;20047;-80
2023/10/11 13:45:47;;;;;;;1.65;1.20;;;22.00;1.00;;;;;;5104263;28;20132;-80
2023/10/11 13:48:14;;;;;;;1.85;1.30;;;22.10;1.00;;;;;;5087431;28;20105;-80
2023/10/11 13:50:41;;;;;;;2.03;1.13;;;22.10;1.00;;;;;;5107521;28;20043;-79
2023/10/11 13:53:13;;;;;;;1.48;1.17;;;22.10;1.00;;;;;;5106782;28;20047;-80
2023/10/11 13:55:40;;;;;;;1.90;1.08;;;22.10;1.00;;;;;;5108036;28;20119;-80
2023/10/11 13:58:10;;;;;;;1.92;1.20;;;22.10;1.00;;;;;;5107986;28;20044;-80
2023/10/11 14:05:45;;;;;;;2.85;1.75;;;21.60;1.00;;;;;;5089510;28;20155;-80
2023/10/11 14:08:30;;;;;;;2.28;1.50;;;21.50;1.00;;;;;;5106340;28;20043;-80